Time;durP1;ratioP1;P1;durP2;ratioP2;P2;SDS_P1;SDS_P2;PMS_P1;PMS_P2;Temp;Humidity;BMP_temperature;BMP_pressure;BME280_temperature;BME280_humidity;BME280_pressure;Samples;Min_cycle;Max_cycle;Signal;HPM_P1;HPM_P2
2023/11/23 00:02:01;;;;;;;21.17;12.05;;;5.10;99.90;;;;;;5041411;28;20039;-60
2023/11/23 00:04:27;;;;;;;21.67;12.57;;;5.10;99.90;;;;;;5040954;28;20032;-57
2023/11/23 00:06:53;;;;;;;22.92;12.10;;;5.20;99.90;;;;;;5040142;28;20473;-59
2023/11/23 00:09:19;;;;;;;21.02;12.10;;;5.20;99.90;;;;;;5038352;28;20059;-61
2023/11/23 00:11:45;;;;;;;16.25;10.68;;;5.20;99.90;;;;;;5039131;28;20047;-60
2023/11/23 00:14:10;;;;;;;18.80;11.55;;;5.30;99.90;;;;;;5040032;28;20032;-60
2023/11/23 00:16:36;;;;;;;17.92;12.05;;;5.30;99.90;;;;;;5022184;28;20520;-60
2023/11/23 00:19:02;;;;;;;20.55;12.88;;;5.30;99.90;;;;;;5040960;28;20033;-59
2023/11/23 00:21:27;;;;;;;16.60;10.60;;;5.40;99.90;;;;;;5041405;28;20033;-60
2023/11/23 00:23:53;;;;;;;22.00;11.85;;;5.40;99.90;;;;;;5042845;28;20079;-60
2023/11/23 00:26:19;;;;;;;19.80;12.15;;;5.50;99.90;;;;;;5042095;28;20032;-58
2023/11/23 00:28:44;;;;;;;20.85;13.23;;;5.50;99.90;;;;;;5023088;28;20091;-59
2023/11/23 00:31:10;;;;;;;21.63;12.82;;;5.50;99.90;;;;;;5040551;28;20068;-61
2023/11/23 00:33:35;;;;;;;23.80;13.43;;;5.60;99.90;;;;;;5019833;28;20120;-59
2023/11/23 00:36:02;;;;;;;21.50;11.70;;;5.60;99.90;;;;;;5038541;28;20037;-57
2023/11/23 00:38:28;;;;;;;21.33;12.30;;;5.60;99.90;;;;;;5022840;28;20037;-58
2023/11/23 00:40:54;;;;;;;21.75;12.25;;;5.60;99.90;;;;;;5008983;28;20017;-58
2023/11/23 00:43:19;;;;;;;22.08;12.07;;;5.70;99.90;;;;;;5040943;28;20029;-59
2023/11/23 00:45:45;;;;;;;17.48;11.80;;;5.70;99.90;;;;;;5042000;28;20559;-59
2023/11/23 00:48:11;;;;;;;23.02;12.65;;;5.70;99.90;;;;;;5025738;28;20032;-58
2023/11/23 00:50:36;;;;;;;17.95;12.27;;;5.80;99.90;;;;;;5037810;28;20033;-60
2023/11/23 00:53:02;;;;;;;20.55;12.20;;;5.80;99.90;;;;;;5041866;28;20493;-58
2023/11/23 00:55:29;;;;;;;18.52;11.77;;;5.80;99.90;;;;;;5024381;28;20054;-58
2023/11/23 00:57:55;;;;;;;20.00;12.70;;;5.80;99.90;;;;;;5026974;28;20111;-57
2023/11/23 01:00:21;;;;;;;21.73;12.38;;;5.90;99.90;;;;;;5040596;28;20147;-58
2023/11/23 01:02:46;;;;;;;20.45;11.88;;;5.90;99.90;;;;;;5044072;28;20033;-58
2023/11/23 01:05:15;;;;;;;18.13;11.57;;;5.90;99.90;;;;;;5043368;28;20083;-55
2023/11/23 01:07:41;;;;;;;26.67;12.73;;;6.00;99.90;;;;;;5027341;28;20063;-58
2023/11/23 01:10:07;;;;;;;20.88;12.02;;;6.10;99.90;;;;;;5040926;28;20028;-56
2023/11/23 01:12:33;;;;;;;23.13;12.48;;;6.10;99.90;;;;;;5043351;28;20598;-56
2023/11/23 01:14:59;;;;;;;23.27;12.60;;;6.20;99.90;;;;;;5041638;28;20029;-54
2023/11/23 01:17:25;;;;;;;22.33;12.75;;;6.20;99.90;;;;;;5046468;28;20033;-56
2023/11/23 01:19:50;;;;;;;24.73;13.27;;;6.30;99.90;;;;;;5038508;28;20175;-55
2023/11/23 01:22:16;;;;;;;20.42;12.18;;;6.20;99.90;;;;;;5039898;28;20108;-57
2023/11/23 01:24:43;;;;;;;22.83;12.73;;;6.20;99.90;;;;;;5045412;28;20043;-56
2023/11/23 01:27:08;;;;;;;22.95;13.68;;;6.30;99.90;;;;;;5043981;28;20132;-57
2023/11/23 01:29:34;;;;;;;23.13;12.60;;;6.30;99.90;;;;;;5044164;28;20556;-56
2023/11/23 01:32:00;;;;;;;27.05;13.88;;;6.30;99.90;;;;;;5025925;28;20033;-55
2023/11/23 01:34:26;;;;;;;20.70;12.77;;;6.40;99.90;;;;;;5046114;28;20901;-58
2023/11/23 01:36:52;;;;;;;27.92;14.23;;;6.40;99.90;;;;;;5041966;28;20029;-54
2023/11/23 01:39:18;;;;;;;26.98;14.77;;;6.40;99.90;;;;;;5024178;28;20032;-57
2023/11/23 01:41:44;;;;;;;20.77;13.27;;;6.40;99.90;;;;;;5030565;28;20032;-56
2023/11/23 01:44:11;;;;;;;27.45;13.57;;;6.50;99.90;;;;;;5041779;28;20108;-58
2023/11/23 01:46:36;;;;;;;25.02;13.85;;;6.50;99.90;;;;;;5039439;28;20033;-55
2023/11/23 01:49:03;;;;;;;28.98;14.43;;;6.60;99.90;;;;;;5038683;28;20099;-56
2023/11/23 01:51:30;;;;;;;19.75;12.93;;;6.60;99.90;;;;;;5039621;28;20481;-57
2023/11/23 01:53:57;;;;;;;25.20;13.32;;;6.60;99.90;;;;;;5035858;28;20062;-56
2023/11/23 01:56:25;;;;;;;21.10;13.15;;;6.70;99.90;;;;;;5036728;28;20123;-52
2023/11/23 01:58:52;;;;;;;23.77;13.80;;;6.70;99.90;;;;;;5018224;28;20025;-55
2023/11/23 02:01:18;;;;;;;25.15;14.77;;;6.70;99.90;;;;;;5036419;28;20087;-56
2023/11/23 02:03:45;;;;;;;23.92;14.45;;;6.70;99.90;;;;;;5037307;28;20036;-57
2023/11/23 02:06:12;;;;;;;30.08;13.63;;;6.70;99.90;;;;;;5040326;28;20137;-58
2023/11/23 02:08:39;;;;;;;26.33;13.00;;;6.80;99.90;;;;;;5036538;28;20101;-58
2023/11/23 02:11:05;;;;;;;18.73;12.35;;;6.80;99.90;;;;;;5038679;28;20181;-57
2023/11/23 02:13:33;;;;;;;21.45;12.38;;;6.80;99.90;;;;;;5024751;28;20045;-58
2023/11/23 02:15:59;;;;;;;24.38;13.75;;;6.90;99.90;;;;;;5039906;28;20029;-58
2023/11/23 02:18:25;;;;;;;21.88;13.30;;;6.90;99.90;;;;;;5042401;28;20139;-58
2023/11/23 02:20:51;;;;;;;26.00;13.75;;;7.00;99.90;;;;;;5042214;28;20036;-57
2023/11/23 02:23:17;;;;;;;21.88;12.60;;;7.00;99.90;;;;;;5026752;28;20028;-57
2023/11/23 02:25:42;;;;;;;22.98;12.52;;;7.00;99.90;;;;;;5038093;28;20055;-57
2023/11/23 02:28:08;;;;;;;23.70;13.95;;;7.00;99.90;;;;;;5044748;28;20067;-56
2023/11/23 02:30:34;;;;;;;22.52;13.65;;;7.10;99.90;;;;;;5042358;28;20119;-57
2023/11/23 02:33:01;;;;;;;23.10;12.80;;;7.10;99.90;;;;;;5039300;28;20519;-56
2023/11/23 02:35:27;;;;;;;22.23;13.27;;;7.20;99.90;;;;;;5040295;28;20052;-57
2023/11/23 02:37:53;;;;;;;21.05;13.65;;;7.30;99.90;;;;;;5041532;28;20120;-58
2023/11/23 02:40:19;;;;;;;24.92;12.98;;;7.30;99.90;;;;;;5041882;28;20108;-58
2023/11/23 02:42:44;;;;;;;26.95;14.13;;;7.40;99.90;;;;;;5023438;28;20031;-57
2023/11/23 02:45:10;;;;;;;24.85;13.63;;;7.40;99.90;;;;;;5025490;28;20511;-58
2023/11/23 02:47:36;;;;;;;23.58;14.40;;;7.40;99.90;;;;;;5041803;28;20037;-57
2023/11/23 02:50:04;;;;;;;25.20;13.98;;;7.50;99.90;;;;;;5042079;28;20413;-60
2023/11/23 02:52:30;;;;;;;25.63;13.25;;;7.50;99.90;;;;;;5022593;28;20037;-58
2023/11/23 02:54:56;;;;;;;23.98;13.43;;;7.60;99.90;;;;;;5045545;28;20025;-59
2023/11/23 02:57:21;;;;;;;26.55;13.15;;;7.60;99.90;;;;;;5037581;28;20404;-58
2023/11/23 02:59:49;;;;;;;25.10;14.30;;;7.60;99.90;;;;;;5044479;28;20104;-58
2023/11/23 03:02:14;;;;;;;26.73;14.30;;;7.60;99.90;;;;;;5041552;28;20438;-58
2023/11/23 03:04:40;;;;;;;20.88;13.55;;;7.70;99.90;;;;;;5038461;28;20040;-59
2023/11/23 03:07:06;;;;;;;28.00;14.60;;;7.60;99.90;;;;;;5041698;28;20053;-58
2023/11/23 03:09:32;;;;;;;24.17;14.25;;;7.70;99.90;;;;;;5040308;28;20091;-58
2023/11/23 03:12:00;;;;;;;29.45;14.65;;;7.70;99.90;;;;;;5040060;28;20040;-57
2023/11/23 03:14:25;;;;;;;25.08;13.38;;;7.70;99.90;;;;;;5042016;28;20509;-56
2023/11/23 03:16:52;;;;;;;26.35;13.73;;;7.70;99.90;;;;;;5040309;28;20021;-59
2023/11/23 03:19:17;;;;;;;23.27;14.73;;;7.70;99.90;;;;;;5040147;28;20092;-58
2023/11/23 03:21:43;;;;;;;23.83;13.40;;;7.70;99.90;;;;;;5039078;28;20604;-58
2023/11/23 03:24:09;;;;;;;20.85;14.02;;;7.70;99.90;;;;;;5043999;28;20029;-59
2023/11/23 03:26:36;;;;;;;22.50;12.63;;;7.70;99.90;;;;;;5040511;28;20135;-58
2023/11/23 03:29:03;;;;;;;25.10;14.15;;;7.70;99.90;;;;;;5042899;28;20048;-56
2023/11/23 03:31:28;;;;;;;25.00;14.05;;;7.70;99.90;;;;;;5040714;28;20025;-58
2023/11/23 03:33:54;;;;;;;19.88;12.27;;;7.70;99.90;;;;;;5044108;28;20052;-60
2023/11/23 03:36:20;;;;;;;18.67;12.85;;;7.70;99.90;;;;;;5046285;28;20125;-57
2023/11/23 03:38:45;;;;;;;20.77;13.55;;;7.80;99.90;;;;;;5042485;28;20057;-58
2023/11/23 03:41:11;;;;;;;20.85;12.70;;;7.80;99.90;;;;;;5044981;28;20028;-57
2023/11/23 03:43:36;;;;;;;22.52;12.88;;;7.80;99.90;;;;;;5040287;28;20437;-56
2023/11/23 03:46:02;;;;;;;23.48;14.15;;;7.80;99.90;;;;;;5042861;28;20037;-58
2023/11/23 03:48:28;;;;;;;20.73;12.05;;;7.80;99.90;;;;;;5041631;28;20032;-59
2023/11/23 03:50:53;;;;;;;22.05;12.68;;;7.80;99.90;;;;;;5044874;28;20511;-58
2023/11/23 03:53:19;;;;;;;23.10;12.27;;;7.80;99.90;;;;;;5041976;28;20061;-59
2023/11/23 03:55:45;;;;;;;23.90;13.10;;;7.80;99.90;;;;;;5042652;28;20033;-59
2023/11/23 03:58:11;;;;;;;19.60;12.73;;;7.90;99.90;;;;;;5043232;28;20463;-58
2023/11/23 04:00:37;;;;;;;23.00;13.60;;;7.90;99.90;;;;;;5041610;28;20151;-58
2023/11/23 04:03:03;;;;;;;19.92;13.38;;;7.90;99.90;;;;;;5024028;28;20559;-59
2023/11/23 04:05:28;;;;;;;26.42;12.90;;;7.90;99.90;;;;;;5040736;28;20025;-59
2023/11/23 04:07:54;;;;;;;20.88;11.93;;;8.00;99.90;;;;;;5043456;28;20370;-58
2023/11/23 04:10:20;;;;;;;19.85;12.38;;;8.00;99.90;;;;;;5041725;28;20033;-56
2023/11/23 04:12:45;;;;;;;19.15;12.77;;;8.00;99.90;;;;;;5043227;28;20033;-58
2023/11/23 04:15:12;;;;;;;22.92;12.80;;;8.00;99.90;;;;;;5041030;28;20042;-57
2023/11/23 04:17:38;;;;;;;21.00;13.00;;;8.10;99.90;;;;;;5041299;28;20663;-59
2023/11/23 04:20:05;;;;;;;19.92;12.88;;;8.10;99.90;;;;;;5041630;28;20013;-59
2023/11/23 04:22:30;;;;;;;23.85;12.48;;;8.10;99.90;;;;;;5024251;28;20041;-58
2023/11/23 04:24:56;;;;;;;21.08;12.45;;;8.20;99.90;;;;;;5042154;28;20032;-59
2023/11/23 04:27:22;;;;;;;18.65;10.95;;;8.20;99.90;;;;;;5043467;28;20108;-58
2023/11/23 04:29:48;;;;;;;21.55;12.30;;;8.30;99.90;;;;;;5043999;28;20491;-58
2023/11/23 04:32:14;;;;;;;17.42;11.77;;;8.30;99.90;;;;;;5046546;28;20024;-55
2023/11/23 04:34:40;;;;;;;18.33;11.90;;;8.40;99.90;;;;;;5044326;28;20032;-58
2023/11/23 04:37:05;;;;;;;21.30;11.45;;;8.40;99.90;;;;;;5046562;28;20103;-59
2023/11/23 04:39:31;;;;;;;17.92;12.23;;;8.50;99.90;;;;;;5044334;28;20606;-58
2023/11/23 04:41:57;;;;;;;18.55;11.45;;;8.40;99.90;;;;;;5027783;28;20029;-57
2023/11/23 04:44:23;;;;;;;21.60;10.07;;;8.50;99.90;;;;;;5048138;28;20112;-56
2023/11/23 04:46:49;;;;;;;18.60;11.45;;;8.50;99.90;;;;;;5027243;28;20052;-57
2023/11/23 04:49:16;;;;;;;19.55;11.27;;;8.50;99.90;;;;;;5045674;28;20481;-59
2023/11/23 04:51:42;;;;;;;15.45;9.57;;;8.60;99.90;;;;;;5044618;28;20063;-56
2023/11/23 04:54:08;;;;;;;16.55;9.27;;;8.60;99.90;;;;;;5043645;28;20497;-60
2023/11/23 04:56:33;;;;;;;16.80;9.23;;;8.70;99.90;;;;;;5043001;28;20025;-57
2023/11/23 04:58:59;;;;;;;11.18;8.00;;;8.70;99.90;;;;;;5045443;28;20025;-56
2023/11/23 05:01:25;;;;;;;15.35;8.50;;;8.70;99.90;;;;;;5043653;28;20045;-57
2023/11/23 05:03:52;;;;;;;13.75;8.68;;;8.80;99.90;;;;;;5041869;28;20029;-58
2023/11/23 05:06:18;;;;;;;12.45;8.73;;;8.80;99.90;;;;;;5043967;28;20116;-60
2023/11/23 05:08:45;;;;;;;16.20;8.80;;;8.80;99.90;;;;;;5046613;28;20099;-59
2023/11/23 05:11:11;;;;;;;15.70;9.73;;;8.90;99.90;;;;;;5045704;28;20516;-59
2023/11/23 05:13:37;;;;;;;22.90;9.27;;;8.80;99.90;;;;;;5045861;28;20024;-59
2023/11/23 05:16:04;;;;;;;18.60;9.13;;;8.90;99.90;;;;;;5046183;28;20044;-58
2023/11/23 05:18:29;;;;;;;18.00;8.77;;;9.00;99.90;;;;;;5042132;28;20512;-59
2023/11/23 05:20:55;;;;;;;11.82;8.48;;;9.00;99.90;;;;;;5027850;28;20053;-57
2023/11/23 05:23:20;;;;;;;15.73;9.05;;;9.00;99.90;;;;;;5044661;28;20121;-57
2023/11/23 05:25:46;;;;;;;16.65;8.35;;;9.00;99.90;;;;;;5047449;28;20056;-59
2023/11/23 05:28:11;;;;;;;12.43;7.45;;;9.10;99.90;;;;;;5043055;28;20104;-59
2023/11/23 05:30:38;;;;;;;17.98;8.32;;;9.10;99.90;;;;;;5045665;28;20029;-61
2023/11/23 05:33:04;;;;;;;14.20;7.88;;;9.10;99.90;;;;;;5044616;28;20020;-59
2023/11/23 05:35:31;;;;;;;11.52;7.40;;;9.10;99.90;;;;;;5025353;28;20356;-59
2023/11/23 05:37:57;;;;;;;15.52;8.07;;;9.20;99.90;;;;;;5027206;28;20035;-61
2023/11/23 05:40:23;;;;;;;14.52;7.40;;;9.20;99.90;;;;;;5043056;28;20040;-59
2023/11/23 05:42:50;;;;;;;15.50;6.38;;;9.20;99.90;;;;;;5046391;28;20025;-60
2023/11/23 05:45:16;;;;;;;15.20;6.75;;;9.20;99.90;;;;;;5028355;28;20032;-59
2023/11/23 05:47:41;;;;;;;14.43;6.55;;;9.20;99.90;;;;;;5044799;28;20025;-60
2023/11/23 05:50:08;;;;;;;11.48;6.47;;;9.20;99.90;;;;;;5028108;28;20032;-60
2023/11/23 05:52:34;;;;;;;20.58;7.03;;;9.30;99.90;;;;;;5044484;28;20032;-60
2023/11/23 05:54:59;;;;;;;19.20;7.72;;;9.30;99.90;;;;;;5042623;28;20075;-59
2023/11/23 05:57:25;;;;;;;14.05;6.53;;;9.30;99.90;;;;;;5043626;28;20075;-59
2023/11/23 05:59:51;;;;;;;16.63;5.43;;;9.30;99.90;;;;;;5043471;28;20030;-58
2023/11/23 06:02:18;;;;;;;13.65;4.95;;;9.30;99.90;;;;;;5044839;28;20516;-59
2023/11/23 06:04:45;;;;;;;12.13;5.93;;;9.30;99.90;;;;;;5041290;28;20078;-59
2023/11/23 06:07:11;;;;;;;13.75;5.75;;;9.30;99.90;;;;;;5040201;28;20036;-60
2023/11/23 06:09:37;;;;;;;12.75;5.38;;;9.30;99.90;;;;;;5043567;28;20100;-60
2023/11/23 06:12:04;;;;;;;8.95;4.85;;;9.40;99.90;;;;;;5044572;28;20029;-60
2023/11/23 06:14:33;;;;;;;12.98;5.47;;;9.40;99.90;;;;;;5045207;28;20108;-60
2023/11/23 06:16:58;;;;;;;14.48;5.38;;;9.40;99.90;;;;;;5027540;28;20492;-60
2023/11/23 06:19:24;;;;;;;15.20;4.93;;;9.40;99.90;;;;;;5043787;28;20053;-59
2023/11/23 06:21:50;;;;;;;10.65;4.63;;;9.40;99.90;;;;;;5042450;28;20494;-60
2023/11/23 06:24:17;;;;;;;13.23;4.80;;;9.40;99.90;;;;;;5027931;28;20029;-60
2023/11/23 06:26:43;;;;;;;16.20;4.47;;;9.40;99.90;;;;;;5043566;28;20021;-60
2023/11/23 06:29:08;;;;;;;12.93;4.63;;;9.40;99.90;;;;;;5044469;28;20071;-60
2023/11/23 06:31:34;;;;;;;9.68;4.38;;;9.40;99.90;;;;;;5041088;28;20057;-59
2023/11/23 06:34:00;;;;;;;16.38;4.82;;;9.50;99.90;;;;;;5046110;28;20118;-59
2023/11/23 06:36:26;;;;;;;16.02;4.20;;;9.50;99.90;;;;;;5041100;28;20055;-58
2023/11/23 06:38:51;;;;;;;17.75;4.30;;;9.50;99.90;;;;;;5043992;28;20036;-59
2023/11/23 06:41:21;;;;;;;13.20;5.07;;;9.40;99.90;;;;;;5043901;28;20036;-59
2023/11/23 06:43:48;;;;;;;9.75;3.80;;;9.50;99.90;;;;;;5026639;28;20028;-56
2023/11/23 06:46:15;;;;;;;13.25;3.72;;;9.50;99.90;;;;;;5044490;28;20020;-60
2023/11/23 06:48:41;;;;;;;8.30;3.47;;;9.50;99.90;;;;;;5043959;28;20029;-57
2023/11/23 06:51:07;;;;;;;20.58;4.88;;;9.50;99.90;;;;;;5040573;28;20039;-58
2023/11/23 06:53:35;;;;;;;14.07;3.95;;;9.50;99.90;;;;;;5023802;28;20133;-59
2023/11/23 06:56:02;;;;;;;9.32;3.17;;;9.50;99.90;;;;;;5044168;28;20016;-58
2023/11/23 06:58:28;;;;;;;12.48;4.25;;;9.50;99.90;;;;;;5041861;28;20036;-59
2023/11/23 07:00:54;;;;;;;12.07;3.28;;;9.60;99.90;;;;;;5040979;28;20033;-60
2023/11/23 07:03:22;;;;;;;11.23;3.28;;;9.60;99.90;;;;;;5023422;28;20126;-59
2023/11/23 07:05:48;;;;;;;9.30;3.22;;;9.60;99.90;;;;;;5042177;28;20025;-59
2023/11/23 07:08:14;;;;;;;14.52;3.55;;;9.60;99.90;;;;;;5037637;28;20044;-57
2023/11/23 07:10:41;;;;;;;12.45;2.88;;;9.60;99.90;;;;;;5043384;28;20032;-58
2023/11/23 07:13:07;;;;;;;9.18;3.38;;;9.60;99.90;;;;;;5022334;28;20032;-58
2023/11/23 07:15:33;;;;;;;10.90;3.25;;;9.70;99.90;;;;;;5041109;28;20180;-55
2023/11/23 07:17:59;;;;;;;11.80;3.15;;;9.70;99.90;;;;;;5039438;28;20544;-58
2023/11/23 07:20:26;;;;;;;13.20;3.92;;;9.60;99.90;;;;;;5040956;28;20029;-58
2023/11/23 07:22:52;;;;;;;11.90;2.83;;;9.70;99.90;;;;;;5025887;28;20079;-58
2023/11/23 07:25:18;;;;;;;13.40;3.30;;;9.70;99.90;;;;;;5044342;28;20021;-58
2023/11/23 07:27:43;;;;;;;5.95;2.25;;;9.70;99.90;;;;;;5040214;28;20048;-59
2023/11/23 07:30:10;;;;;;;9.40;2.72;;;9.70;99.90;;;;;;5043437;28;20370;-60
2023/11/23 07:32:36;;;;;;;11.02;3.20;;;9.70;99.90;;;;;;5041128;28;20032;-59
2023/11/23 07:35:05;;;;;;;12.30;3.08;;;9.70;99.90;;;;;;5042786;28;20067;-59
2023/11/23 07:37:33;;;;;;;11.75;4.10;;;9.70;99.90;;;;;;5026096;28;20497;-58
2023/11/23 07:39:59;;;;;;;16.38;4.28;;;9.70;99.90;;;;;;5040766;28;22021;-58
2023/11/23 07:42:28;;;;;;;9.65;3.30;;;9.80;99.90;;;;;;5044181;28;20025;-59
2023/11/23 07:44:54;;;;;;;8.18;3.60;;;9.80;99.90;;;;;;5041572;28;20029;-57
2023/11/23 07:47:19;;;;;;;7.65;3.00;;;9.70;99.90;;;;;;5043374;28;20036;-59
2023/11/23 07:49:45;;;;;;;12.25;3.45;;;9.70;99.90;;;;;;5040362;28;20776;-60
2023/11/23 07:52:14;;;;;;;16.50;3.53;;;9.80;99.90;;;;;;5042304;28;20463;-59
2023/11/23 07:54:40;;;;;;;14.10;3.72;;;9.80;99.90;;;;;;5042152;28;20033;-58
2023/11/23 07:57:05;;;;;;;10.63;3.60;;;9.80;99.90;;;;;;5042643;28;20017;-58
2023/11/23 07:59:34;;;;;;;13.23;3.30;;;9.80;99.90;;;;;;5042858;28;20079;-59
2023/11/23 08:02:01;;;;;;;11.38;3.75;;;9.80;99.90;;;;;;5042045;28;20487;-61
2023/11/23 08:04:26;;;;;;;11.52;3.40;;;9.80;99.90;;;;;;5044132;28;20136;-60
2023/11/23 08:06:52;;;;;;;15.18;3.90;;;9.80;99.90;;;;;;5044031;28;20115;-61
2023/11/23 08:09:20;;;;;;;15.13;3.25;;;9.80;99.90;;;;;;5029054;28;20091;-60
2023/11/23 08:11:47;;;;;;;11.02;3.60;;;9.90;99.90;;;;;;5043210;28;20037;-60
2023/11/23 08:14:13;;;;;;;15.13;3.63;;;9.90;99.90;;;;;;5041984;28;20101;-61
2023/11/23 08:16:38;;;;;;;13.70;3.40;;;9.90;99.90;;;;;;5044543;28;20389;-60
2023/11/23 08:19:04;;;;;;;16.85;4.25;;;9.90;99.90;;;;;;5046553;28;20029;-60
2023/11/23 08:21:30;;;;;;;16.55;5.15;;;9.90;99.90;;;;;;5042721;28;20148;-60
2023/11/23 08:23:55;;;;;;;10.82;3.00;;;10.00;99.90;;;;;;5043620;28;20140;-60
2023/11/23 08:26:21;;;;;;;15.82;3.22;;;10.00;99.90;;;;;;5046081;28;20033;-60
2023/11/23 08:28:47;;;;;;;10.40;3.55;;;10.00;99.90;;;;;;5044400;28;20064;-61
2023/11/23 08:31:12;;;;;;;15.32;3.20;;;10.00;99.90;;;;;;5044273;28;20056;-61
2023/11/23 08:33:38;;;;;;;14.23;3.40;;;10.00;99.90;;;;;;5043417;28;20032;-58
2023/11/23 08:36:04;;;;;;;12.07;3.00;;;10.00;99.90;;;;;;5045790;28;20057;-61
2023/11/23 08:38:30;;;;;;;14.30;4.63;;;10.10;99.90;;;;;;5029205;28;20063;-58
2023/11/23 08:40:55;;;;;;;15.00;3.72;;;10.00;99.90;;;;;;5042943;28;20020;-59
2023/11/23 08:43:21;;;;;;;8.43;2.67;;;10.10;99.90;;;;;;5037749;28;20033;-60
2023/11/23 08:45:47;;;;;;;13.05;3.47;;;10.10;99.90;;;;;;5044846;28;20040;-59
2023/11/23 08:48:13;;;;;;;11.10;2.28;;;10.10;99.90;;;;;;5044859;28;20108;-61
2023/11/23 08:50:39;;;;;;;10.98;3.13;;;10.10;99.90;;;;;;5048370;28;20029;-59
2023/11/23 08:53:05;;;;;;;7.90;2.25;;;10.10;99.90;;;;;;5041464;28;20037;-58
2023/11/23 08:55:30;;;;;;;11.30;3.75;;;10.10;99.90;;;;;;5026239;28;20026;-59
2023/11/23 08:57:56;;;;;;;13.15;4.03;;;10.10;99.90;;;;;;5045545;28;20108;-61
2023/11/23 09:00:23;;;;;;;12.30;3.03;;;10.10;99.90;;;;;;5044973;28;20323;-60
2023/11/23 09:02:54;;;;;;;10.38;3.05;;;10.10;99.90;;;;;;5045078;28;20021;-59
2023/11/23 09:05:23;;;;;;;10.55;3.15;;;10.10;99.90;;;;;;5044989;28;20017;-57
2023/11/23 09:07:48;;;;;;;8.30;3.42;;;10.10;99.90;;;;;;5044528;28;20041;-59
2023/11/23 09:10:16;;;;;;;9.35;2.85;;;10.10;99.90;;;;;;5043283;28;20447;-60
2023/11/23 09:12:42;;;;;;;13.00;3.45;;;10.10;99.90;;;;;;5044665;28;20029;-59
2023/11/23 09:15:10;;;;;;;9.98;3.10;;;10.10;99.90;;;;;;5044985;28;20083;-58
2023/11/23 09:17:36;;;;;;;12.32;3.22;;;10.10;99.90;;;;;;5043009;28;20025;-59
2023/11/23 09:20:01;;;;;;;7.20;3.53;;;10.10;99.90;;;;;;5045292;28;20025;-59
2023/11/23 09:22:27;;;;;;;6.93;2.45;;;10.10;99.90;;;;;;5041920;28;20036;-59
2023/11/23 09:24:53;;;;;;;14.70;2.75;;;10.10;99.90;;;;;;5044877;28;20025;-58
2023/11/23 09:27:18;;;;;;;11.45;2.85;;;10.10;99.90;;;;;;5044971;28;20037;-58
2023/11/23 09:29:45;;;;;;;11.77;3.30;;;10.10;99.90;;;;;;5043715;28;20052;-60
2023/11/23 09:32:10;;;;;;;10.85;2.75;;;10.10;99.90;;;;;;5038579;28;20029;-59
2023/11/23 09:34:36;;;;;;;17.27;3.25;;;10.10;99.90;;;;;;5041897;28;20052;-59
2023/11/23 09:37:02;;;;;;;8.93;2.55;;;10.20;99.90;;;;;;5044664;28;20591;-57
2023/11/23 09:39:28;;;;;;;8.30;2.67;;;10.20;99.90;;;;;;5041216;28;20030;-59
2023/11/23 09:41:57;;;;;;;12.77;3.58;;;10.20;99.90;;;;;;5045204;28;20021;-58
2023/11/23 09:44:28;;;;;;;15.30;3.22;;;10.20;99.90;;;;;;5041580;28;20029;-59
2023/11/23 09:46:55;;;;;;;11.77;2.83;;;10.20;99.90;;;;;;5044688;28;20029;-58
2023/11/23 09:49:21;;;;;;;11.20;3.30;;;10.30;99.90;;;;;;5041917;28;20038;-60
2023/11/23 09:51:49;;;;;;;7.93;3.00;;;10.30;99.90;;;;;;5046301;28;20036;-59
2023/11/23 09:54:21;;;;;;;11.70;3.08;;;10.30;99.90;;;;;;5041362;28;20579;-56
2023/11/23 09:56:47;;;;;;;7.20;2.80;;;10.30;99.90;;;;;;5044922;28;20029;-60
2023/11/23 09:59:12;;;;;;;8.63;2.92;;;10.30;99.90;;;;;;5044248;28;20512;-59
2023/11/23 10:01:47;;;;;;;13.00;2.53;;;10.30;99.90;;;;;;5045289;28;20059;-58
2023/11/23 10:04:13;;;;;;;10.32;2.85;;;10.30;99.90;;;;;;5041248;28;20086;-60
2023/11/23 10:06:40;;;;;;;9.70;3.55;;;10.30;99.90;;;;;;5043091;28;20029;-59
2023/11/23 10:09:09;;;;;;;12.50;2.83;;;10.30;99.90;;;;;;5046065;28;20543;-59
2023/11/23 10:11:36;;;;;;;9.02;2.28;;;10.40;99.90;;;;;;5043728;28;20026;-58
2023/11/23 10:14:02;;;;;;;7.90;2.35;;;10.30;99.90;;;;;;5046157;28;20021;-59
2023/11/23 10:16:31;;;;;;;10.57;2.78;;;10.40;99.90;;;;;;5041992;28;20112;-60
2023/11/23 10:18:57;;;;;;;11.52;2.85;;;10.40;99.90;;;;;;5042444;28;20445;-60
2023/11/23 10:21:23;;;;;;;8.02;1.95;;;10.40;99.90;;;;;;5044284;28;20037;-57
2023/11/23 10:23:49;;;;;;;14.45;2.72;;;10.40;99.90;;;;;;5041068;28;20029;-59
2023/11/23 10:26:15;;;;;;;13.32;3.05;;;10.40;99.90;;;;;;5027025;28;20033;-57
2023/11/23 10:28:41;;;;;;;8.85;2.15;;;10.40;99.90;;;;;;5040565;28;20026;-61
2023/11/23 10:31:06;;;;;;;9.90;3.10;;;10.40;99.90;;;;;;5043092;28;20114;-60
2023/11/23 10:33:35;;;;;;;6.65;1.77;;;10.40;99.90;;;;;;5041523;28;20052;-58
2023/11/23 10:36:07;;;;;;;7.55;2.75;;;10.50;99.90;;;;;;5043434;28;20017;-58
2023/11/23 10:38:40;;;;;;;9.98;2.42;;;10.50;99.90;;;;;;5044131;28;20029;-59
2023/11/23 10:41:07;;;;;;;13.13;4.30;;;10.60;99.90;;;;;;5044311;28;20714;-60
2023/11/23 10:43:36;;;;;;;28.77;11.32;;;10.60;99.90;;;;;;5042733;28;20028;-61
2023/11/23 10:46:07;;;;;;;22.02;9.43;;;10.60;99.90;;;;;;5040537;28;20025;-61
2023/11/23 10:48:34;;;;;;;13.07;5.38;;;10.70;99.90;;;;;;5043209;28;20032;-61
2023/11/23 10:51:04;;;;;;;17.63;5.78;;;10.70;99.90;;;;;;5045688;28;20107;-61
2023/11/23 10:53:31;;;;;;;11.27;5.35;;;10.70;99.90;;;;;;5042370;28;20397;-61
2023/11/23 10:56:10;;;;;;;23.42;7.50;;;10.70;99.90;;;;;;5043661;28;20275;-62
2023/11/23 10:58:38;;;;;;;12.88;4.40;;;10.70;99.90;;;;;;5038698;28;20037;-62
2023/11/23 11:01:10;;;;;;;8.45;3.47;;;10.80;99.90;;;;;;5042137;28;20067;-63
2023/11/23 11:03:38;;;;;;;7.47;2.85;;;10.80;99.90;;;;;;5042630;28;20049;-60
2023/11/23 11:06:13;;;;;;;12.07;2.70;;;10.80;99.90;;;;;;5026168;28;20032;-62
2023/11/23 11:08:50;;;;;;;12.85;4.60;;;10.90;99.90;;;;;;5044343;28;20175;-62
2023/11/23 11:11:23;;;;;;;9.40;4.32;;;10.90;99.90;;;;;;5037245;28;20551;-60
2023/11/23 11:13:49;;;;;;;18.70;3.88;;;10.90;99.90;;;;;;5039934;28;20033;-60
2023/11/23 11:16:20;;;;;;;13.32;3.03;;;10.90;99.90;;;;;;5039640;28;20071;-62
2023/11/23 11:18:53;;;;;;;8.55;1.80;;;10.90;99.90;;;;;;5039770;28;20056;-61
2023/11/23 11:21:23;;;;;;;14.07;2.38;;;10.90;99.90;;;;;;5039752;28;20385;-61
2023/11/23 11:23:51;;;;;;;10.57;2.05;;;10.90;99.90;;;;;;5042346;28;20139;-62
2023/11/23 11:26:27;;;;;;;10.90;1.77;;;11.00;99.90;;;;;;5042642;28;20509;-63
2023/11/23 11:28:54;;;;;;;12.45;3.17;;;11.00;99.90;;;;;;5040665;28;20040;-61
2023/11/23 11:31:38;;;;;;;14.55;3.72;;;11.00;99.90;;;;;;5041362;28;20030;-60
2023/11/23 11:34:21;;;;;;;17.08;2.45;;;11.00;99.90;;;;;;5041357;28;20161;-61
2023/11/23 11:37:01;;;;;;;9.00;2.33;;;11.00;99.90;;;;;;5044378;28;20107;-59
2023/11/23 11:39:36;;;;;;;9.52;3.28;;;11.00;99.90;;;;;;5024458;28;20576;-60
2023/11/23 11:42:03;;;;;;;12.20;3.53;;;11.00;99.90;;;;;;5043285;28;20036;-61
2023/11/23 11:44:34;;;;;;;15.13;3.15;;;10.90;99.90;;;;;;5039865;28;20099;-59
2023/11/23 11:47:06;;;;;;;15.43;3.47;;;11.00;99.90;;;;;;5043839;28;20580;-59
2023/11/23 11:49:32;;;;;;;13.38;2.90;;;11.00;99.90;;;;;;5042354;28;20067;-59
2023/11/23 11:51:57;;;;;;;11.35;3.28;;;11.00;99.90;;;;;;5041631;28;20044;-58
2023/11/23 11:54:25;;;;;;;13.90;3.78;;;11.00;99.90;;;;;;5040683;28;20109;-59
2023/11/23 11:56:51;;;;;;;9.80;2.38;;;11.00;99.90;;;;;;5024983;28;20067;-62
2023/11/23 11:59:17;;;;;;;8.82;2.50;;;11.00;99.90;;;;;;5042744;28;20112;-61
2023/11/23 12:01:43;;;;;;;12.10;2.95;;;11.00;99.90;;;;;;5043105;28;20049;-61
2023/11/23 12:04:16;;;;;;;12.95;2.65;;;11.00;99.90;;;;;;5021884;28;20112;-59
2023/11/23 12:06:44;;;;;;;13.30;3.17;;;11.00;99.90;;;;;;5044037;28;20563;-61
2023/11/23 12:09:22;;;;;;;12.55;3.10;;;11.00;99.90;;;;;;5043873;28;20405;-59
2023/11/23 12:11:49;;;;;;;11.23;2.20;;;11.00;99.90;;;;;;5043160;28;20055;-59
2023/11/23 12:14:15;;;;;;;15.90;3.25;;;11.00;99.90;;;;;;5044325;28;20116;-60
2023/11/23 12:16:41;;;;;;;13.52;2.78;;;11.00;99.90;;;;;;5040478;28;20096;-58
2023/11/23 12:19:20;;;;;;;9.93;2.20;;;11.00;99.90;;;;;;5023572;28;20017;-60
2023/11/23 12:21:55;;;;;;;12.65;3.45;;;11.00;99.90;;;;;;5040560;28;20036;-59
2023/11/23 12:24:20;;;;;;;10.48;2.53;;;11.00;99.90;;;;;;5042256;28;20028;-59
2023/11/23 12:26:48;;;;;;;12.50;2.38;;;11.00;99.90;;;;;;5041938;28;20416;-62
2023/11/23 12:29:26;;;;;;;12.52;2.75;;;10.90;99.90;;;;;;5041129;28;20115;-62
2023/11/23 12:31:52;;;;;;;11.73;2.83;;;10.90;99.90;;;;;;5039524;28;20037;-60
2023/11/23 12:34:21;;;;;;;10.18;2.58;;;10.90;99.90;;;;;;5042718;28;20039;-57
2023/11/23 12:36:47;;;;;;;8.82;3.15;;;10.90;99.90;;;;;;5042205;28;20033;-61
2023/11/23 12:39:13;;;;;;;14.77;3.47;;;10.90;99.90;;;;;;5040370;28;20087;-60